sensor_id;sensor_type;location;lat;lon;timestamp;P1;durP1;ratioP1;P2;durP2;ratioP2
37459;SDS011;23318;50.966;5.284;2023-08-01T00:00:25;3.88;;;0.60;;
37459;SDS011;23318;50.966;5.284;2023-08-01T00:02:50;0.50;;;0.50;;
37459;SDS011;23318;50.966;5.284;2023-08-01T00:05:16;1.35;;;0.32;;
37459;SDS011;23318;50.966;5.284;2023-08-01T00:07:42;1.95;;;0.40;;
37459;SDS011;23318;50.966;5.284;2023-08-01T00:10:08;2.33;;;0.60;;
37459;SDS011;23318;50.966;5.284;2023-08-01T00:12:34;1.30;;;0.65;;
37459;SDS011;23318;50.966;5.284;2023-08-01T00:14:59;0.50;;;0.47;;
37459;SDS011;23318;50.966;5.284;2023-08-01T00:17:25;1.63;;;0.73;;
37459;SDS011;23318;50.966;5.284;2023-08-01T00:19:51;1.05;;;0.47;;
37459;SDS011;23318;50.966;5.284;2023-08-01T00:22:16;0.73;;;0.60;;
37459;SDS011;23318;50.966;5.284;2023-08-01T00:24:42;2.53;;;0.63;;
37459;SDS011;23318;50.966;5.284;2023-08-01T00:27:08;0.90;;;0.50;;
37459;SDS011;23318;50.966;5.284;2023-08-01T00:29:35;3.58;;;0.70;;
37459;SDS011;23318;50.966;5.284;2023-08-01T00:32:01;3.75;;;0.77;;
37459;SDS011;23318;50.966;5.284;2023-08-01T00:34:27;1.05;;;0.50;;
37459;SDS011;23318;50.966;5.284;2023-08-01T00:36:52;1.88;;;0.77;;
37459;SDS011;23318;50.966;5.284;2023-08-01T00:39:18;2.90;;;0.90;;
37459;SDS011;23318;50.966;5.284;2023-08-01T00:41:44;2.00;;;0.88;;
37459;SDS011;23318;50.966;5.284;2023-08-01T00:44:09;1.20;;;0.90;;
37459;SDS011;23318;50.966;5.284;2023-08-01T00:46:36;2.78;;;0.63;;
37459;SDS011;23318;50.966;5.284;2023-08-01T00:49:02;2.55;;;1.10;;
37459;SDS011;23318;50.966;5.284;2023-08-01T00:51:28;1.30;;;0.82;;
37459;SDS011;23318;50.966;5.284;2023-08-01T00:53:55;4.38;;;1.15;;
37459;SDS011;23318;50.966;5.284;2023-08-01T00:56:21;4.53;;;0.95;;
37459;SDS011;23318;50.966;5.284;2023-08-01T00:58:47;1.17;;;0.90;;
37459;SDS011;23318;50.966;5.284;2023-08-01T01:01:13;4.05;;;1.30;;
37459;SDS011;23318;50.966;5.284;2023-08-01T01:03:39;4.38;;;1.10;;
37459;SDS011;23318;50.966;5.284;2023-08-01T01:08:47;3.50;;;1.25;;
37459;SDS011;23318;50.966;5.284;2023-08-01T01:11:13;6.65;;;1.17;;
37459;SDS011;23318;50.966;5.284;2023-08-01T01:13:39;2.95;;;1.17;;
37459;SDS011;23318;50.966;5.284;2023-08-01T01:16:05;9.48;;;1.27;;
37459;SDS011;23318;50.966;5.284;2023-08-01T01:18:31;4.03;;;1.40;;
37459;SDS011;23318;50.966;5.284;2023-08-01T01:20:56;2.28;;;1.20;;
37459;SDS011;23318;50.966;5.284;2023-08-01T01:23:22;3.05;;;1.40;;
37459;SDS011;23318;50.966;5.284;2023-08-01T01:25:50;3.70;;;1.70;;
37459;SDS011;23318;50.966;5.284;2023-08-01T01:28:18;2.42;;;1.55;;
37459;SDS011;23318;50.966;5.284;2023-08-01T01:30:44;5.53;;;1.80;;
37459;SDS011;23318;50.966;5.284;2023-08-01T01:33:10;1.80;;;1.70;;
37459;SDS011;23318;50.966;5.284;2023-08-01T01:35:37;4.53;;;2.00;;
37459;SDS011;23318;50.966;5.284;2023-08-01T01:38:02;4.50;;;2.25;;
37459;SDS011;23318;50.966;5.284;2023-08-01T01:40:32;3.90;;;1.98;;
37459;SDS011;23318;50.966;5.284;2023-08-01T01:42:59;4.72;;;2.65;;
37459;SDS011;23318;50.966;5.284;2023-08-01T01:45:25;5.13;;;2.30;;
37459;SDS011;23318;50.966;5.284;2023-08-01T01:47:51;7.80;;;2.72;;
37459;SDS011;23318;50.966;5.284;2023-08-01T01:50:17;4.63;;;3.33;;
37459;SDS011;23318;50.966;5.284;2023-08-01T01:52:43;6.50;;;3.00;;
37459;SDS011;23318;50.966;5.284;2023-08-01T01:55:09;4.32;;;2.60;;
37459;SDS011;23318;50.966;5.284;2023-08-01T01:57:35;7.28;;;2.72;;
37459;SDS011;23318;50.966;5.284;2023-08-01T02:00:05;7.72;;;2.80;;
37459;SDS011;23318;50.966;5.284;2023-08-01T02:02:31;7.00;;;3.20;;
37459;SDS011;23318;50.966;5.284;2023-08-01T02:04:56;6.78;;;3.08;;
37459;SDS011;23318;50.966;5.284;2023-08-01T02:07:22;3.15;;;2.38;;
37459;SDS011;23318;50.966;5.284;2023-08-01T02:09:48;4.65;;;2.63;;
37459;SDS011;23318;50.966;5.284;2023-08-01T02:12:13;10.63;;;3.00;;
37459;SDS011;23318;50.966;5.284;2023-08-01T02:14:39;6.82;;;2.08;;
37459;SDS011;23318;50.966;5.284;2023-08-01T02:17:05;9.15;;;2.88;;
37459;SDS011;23318;50.966;5.284;2023-08-01T02:19:32;7.03;;;2.15;;
37459;SDS011;23318;50.966;5.284;2023-08-01T02:21:58;6.68;;;2.63;;
37459;SDS011;23318;50.966;5.284;2023-08-01T02:24:23;8.82;;;3.58;;
37459;SDS011;23318;50.966;5.284;2023-08-01T02:26:49;3.92;;;2.55;;
37459;SDS011;23318;50.966;5.284;2023-08-01T02:29:15;4.57;;;2.65;;
37459;SDS011;23318;50.966;5.284;2023-08-01T02:31:42;6.47;;;3.03;;
37459;SDS011;23318;50.966;5.284;2023-08-01T02:34:07;8.43;;;2.88;;
37459;SDS011;23318;50.966;5.284;2023-08-01T02:36:33;6.10;;;3.10;;
37459;SDS011;23318;50.966;5.284;2023-08-01T02:38:59;4.88;;;2.67;;
37459;SDS011;23318;50.966;5.284;2023-08-01T02:41:24;8.40;;;3.30;;
37459;SDS011;23318;50.966;5.284;2023-08-01T02:43:50;11.90;;;3.30;;
37459;SDS011;23318;50.966;5.284;2023-08-01T02:46:16;7.70;;;3.20;;
37459;SDS011;23318;50.966;5.284;2023-08-01T02:48:42;9.93;;;3.35;;
37459;SDS011;23318;50.966;5.284;2023-08-01T02:51:07;10.05;;;3.30;;
37459;SDS011;23318;50.966;5.284;2023-08-01T02:53:34;8.05;;;3.47;;
37459;SDS011;23318;50.966;5.284;2023-08-01T02:56:01;7.30;;;3.38;;
37459;SDS011;23318;50.966;5.284;2023-08-01T02:58:27;6.63;;;3.58;;
37459;SDS011;23318;50.966;5.284;2023-08-01T03:00:52;4.97;;;3.33;;
37459;SDS011;23318;50.966;5.284;2023-08-01T03:03:18;5.72;;;3.88;;
37459;SDS011;23318;50.966;5.284;2023-08-01T03:05:44;7.22;;;3.90;;
37459;SDS011;23318;50.966;5.284;2023-08-01T03:08:09;8.02;;;4.15;;
37459;SDS011;23318;50.966;5.284;2023-08-01T03:10:35;8.80;;;3.67;;
37459;SDS011;23318;50.966;5.284;2023-08-01T03:13:01;7.80;;;4.20;;
37459;SDS011;23318;50.966;5.284;2023-08-01T03:15:27;8.77;;;3.80;;
37459;SDS011;23318;50.966;5.284;2023-08-01T03:17:53;9.45;;;4.25;;
37459;SDS011;23318;50.966;5.284;2023-08-01T03:20:18;9.52;;;4.10;;
37459;SDS011;23318;50.966;5.284;2023-08-01T03:22:44;7.38;;;3.55;;
37459;SDS011;23318;50.966;5.284;2023-08-01T03:25:10;14.43;;;4.22;;
37459;SDS011;23318;50.966;5.284;2023-08-01T03:27:36;10.07;;;4.80;;
37459;SDS011;23318;50.966;5.284;2023-08-01T03:30:02;13.93;;;5.38;;
37459;SDS011;23318;50.966;5.284;2023-08-01T03:32:33;9.43;;;4.68;;
37459;SDS011;23318;50.966;5.284;2023-08-01T03:35:00;13.38;;;4.78;;
37459;SDS011;23318;50.966;5.284;2023-08-01T03:37:26;8.88;;;5.15;;
37459;SDS011;23318;50.966;5.284;2023-08-01T03:39:51;10.90;;;4.18;;
37459;SDS011;23318;50.966;5.284;2023-08-01T03:42:17;6.97;;;4.00;;
37459;SDS011;23318;50.966;5.284;2023-08-01T03:44:42;9.85;;;4.28;;
37459;SDS011;23318;50.966;5.284;2023-08-01T03:47:08;10.20;;;4.00;;
37459;SDS011;23318;50.966;5.284;2023-08-01T03:49:34;7.70;;;3.60;;
37459;SDS011;23318;50.966;5.284;2023-08-01T03:52:00;7.03;;;3.45;;
37459;SDS011;23318;50.966;5.284;2023-08-01T03:54:26;9.18;;;3.78;;
37459;SDS011;23318;50.966;5.284;2023-08-01T03:56:51;6.25;;;3.78;;
37459;SDS011;23318;50.966;5.284;2023-08-01T03:59:17;9.13;;;3.75;;
37459;SDS011;23318;50.966;5.284;2023-08-01T04:01:43;9.73;;;4.10;;
37459;SDS011;23318;50.966;5.284;2023-08-01T04:04:09;9.60;;;4.55;;
37459;SDS011;23318;50.966;5.284;2023-08-01T04:06:35;14.27;;;4.78;;
37459;SDS011;23318;50.966;5.284;2023-08-01T04:09:01;9.73;;;5.20;;
37459;SDS011;23318;50.966;5.284;2023-08-01T04:11:26;11.93;;;5.20;;
37459;SDS011;23318;50.966;5.284;2023-08-01T04:13:54;12.23;;;5.53;;
37459;SDS011;23318;50.966;5.284;2023-08-01T04:16:21;11.48;;;5.75;;
37459;SDS011;23318;50.966;5.284;2023-08-01T04:18:47;12.32;;;5.65;;
37459;SDS011;23318;50.966;5.284;2023-08-01T04:21:15;16.52;;;6.22;;
37459;SDS011;23318;50.966;5.284;2023-08-01T04:23:41;10.90;;;5.60;;
37459;SDS011;23318;50.966;5.284;2023-08-01T04:26:07;20.75;;;6.00;;
37459;SDS011;23318;50.966;5.284;2023-08-01T04:28:33;13.13;;;6.15;;
37459;SDS011;23318;50.966;5.284;2023-08-01T04:30:59;16.13;;;5.93;;
37459;SDS011;23318;50.966;5.284;2023-08-01T04:33:25;13.73;;;6.28;;
37459;SDS011;23318;50.966;5.284;2023-08-01T04:35:51;11.27;;;6.18;;
37459;SDS011;23318;50.966;5.284;2023-08-01T04:38:16;10.00;;;5.70;;
37459;SDS011;23318;50.966;5.284;2023-08-01T04:40:42;15.23;;;6.07;;
37459;SDS011;23318;50.966;5.284;2023-08-01T04:43:08;15.68;;;6.65;;
37459;SDS011;23318;50.966;5.284;2023-08-01T04:45:34;13.57;;;6.95;;
37459;SDS011;23318;50.966;5.284;2023-08-01T04:48:00;12.02;;;6.90;;
37459;SDS011;23318;50.966;5.284;2023-08-01T04:50:25;14.98;;;6.32;;
37459;SDS011;23318;50.966;5.284;2023-08-01T04:52:51;16.77;;;6.20;;
37459;SDS011;23318;50.966;5.284;2023-08-01T04:55:17;17.48;;;7.28;;
37459;SDS011;23318;50.966;5.284;2023-08-01T04:57:42;19.25;;;6.55;;
37459;SDS011;23318;50.966;5.284;2023-08-01T05:00:09;15.15;;;6.72;;
37459;SDS011;23318;50.966;5.284;2023-08-01T05:02:35;16.65;;;6.57;;
37459;SDS011;23318;50.966;5.284;2023-08-01T05:05:01;15.07;;;7.78;;
37459;SDS011;23318;50.966;5.284;2023-08-01T05:07:27;18.90;;;7.20;;
37459;SDS011;23318;50.966;5.284;2023-08-01T05:09:52;16.23;;;6.65;;
37459;SDS011;23318;50.966;5.284;2023-08-01T05:12:18;18.30;;;7.47;;
37459;SDS011;23318;50.966;5.284;2023-08-01T05:14:43;16.75;;;7.65;;
37459;SDS011;23318;50.966;5.284;2023-08-01T05:17:09;15.43;;;7.88;;
37459;SDS011;23318;50.966;5.284;2023-08-01T05:19:35;15.95;;;7.38;;
37459;SDS011;23318;50.966;5.284;2023-08-01T05:22:00;17.50;;;7.45;;
37459;SDS011;23318;50.966;5.284;2023-08-01T05:24:26;17.60;;;7.55;;
37459;SDS011;23318;50.966;5.284;2023-08-01T05:26:52;15.80;;;6.93;;
37459;SDS011;23318;50.966;5.284;2023-08-01T05:29:18;15.02;;;6.88;;
37459;SDS011;23318;50.966;5.284;2023-08-01T05:31:43;15.82;;;7.72;;
37459;SDS011;23318;50.966;5.284;2023-08-01T05:34:09;13.23;;;6.68;;
37459;SDS011;23318;50.966;5.284;2023-08-01T05:36:35;10.70;;;6.55;;
37459;SDS011;23318;50.966;5.284;2023-08-01T05:39:02;17.67;;;6.40;;
37459;SDS011;23318;50.966;5.284;2023-08-01T05:41:27;15.50;;;6.85;;
37459;SDS011;23318;50.966;5.284;2023-08-01T05:43:53;15.60;;;6.30;;
37459;SDS011;23318;50.966;5.284;2023-08-01T05:46:19;13.55;;;6.72;;
37459;SDS011;23318;50.966;5.284;2023-08-01T05:48:45;16.38;;;7.35;;
37459;SDS011;23318;50.966;5.284;2023-08-01T05:51:10;17.35;;;7.50;;
37459;SDS011;23318;50.966;5.284;2023-08-01T05:53:36;18.90;;;6.88;;
37459;SDS011;23318;50.966;5.284;2023-08-01T05:56:02;20.42;;;7.30;;
37459;SDS011;23318;50.966;5.284;2023-08-01T05:58:29;13.55;;;7.18;;
37459;SDS011;23318;50.966;5.284;2023-08-01T06:00:55;15.23;;;6.85;;
37459;SDS011;23318;50.966;5.284;2023-08-01T06:03:22;16.40;;;6.80;;
37459;SDS011;23318;50.966;5.284;2023-08-01T06:05:47;18.10;;;7.35;;
37459;SDS011;23318;50.966;5.284;2023-08-01T06:08:13;14.23;;;6.88;;
37459;SDS011;23318;50.966;5.284;2023-08-01T06:10:40;12.05;;;7.20;;
37459;SDS011;23318;50.966;5.284;2023-08-01T06:13:07;19.85;;;7.22;;
37459;SDS011;23318;50.966;5.284;2023-08-01T06:15:33;11.75;;;7.22;;
37459;SDS011;23318;50.966;5.284;2023-08-01T06:17:58;21.38;;;7.40;;
37459;SDS011;23318;50.966;5.284;2023-08-01T06:20:24;15.63;;;7.20;;
37459;SDS011;23318;50.966;5.284;2023-08-01T06:22:50;15.48;;;6.97;;
37459;SDS011;23318;50.966;5.284;2023-08-01T06:25:15;17.90;;;7.55;;
37459;SDS011;23318;50.966;5.284;2023-08-01T06:27:41;18.70;;;7.22;;
37459;SDS011;23318;50.966;5.284;2023-08-01T06:30:07;16.33;;;7.28;;
37459;SDS011;23318;50.966;5.284;2023-08-01T06:32:33;21.17;;;7.95;;
37459;SDS011;23318;50.966;5.284;2023-08-01T06:34:58;18.42;;;8.38;;
37459;SDS011;23318;50.966;5.284;2023-08-01T06:37:24;19.67;;;7.88;;
37459;SDS011;23318;50.966;5.284;2023-08-01T06:39:50;18.30;;;7.82;;
37459;SDS011;23318;50.966;5.284;2023-08-01T06:42:15;21.65;;;8.02;;
37459;SDS011;23318;50.966;5.284;2023-08-01T06:44:41;16.20;;;7.18;;
37459;SDS011;23318;50.966;5.284;2023-08-01T06:47:07;18.20;;;7.38;;
37459;SDS011;23318;50.966;5.284;2023-08-01T06:49:33;14.80;;;7.45;;
37459;SDS011;23318;50.966;5.284;2023-08-01T06:51:58;11.98;;;6.20;;
37459;SDS011;23318;50.966;5.284;2023-08-01T06:54:24;17.70;;;6.88;;
37459;SDS011;23318;50.966;5.284;2023-08-01T06:56:50;14.88;;;7.63;;
37459;SDS011;23318;50.966;5.284;2023-08-01T06:59:16;15.15;;;5.80;;
37459;SDS011;23318;50.966;5.284;2023-08-01T07:01:42;16.63;;;6.32;;
37459;SDS011;23318;50.966;5.284;2023-08-01T07:04:12;20.77;;;6.95;;
37459;SDS011;23318;50.966;5.284;2023-08-01T07:06:38;15.55;;;6.60;;
37459;SDS011;23318;50.966;5.284;2023-08-01T07:09:05;14.10;;;5.93;;
37459;SDS011;23318;50.966;5.284;2023-08-01T07:11:31;15.30;;;6.30;;
37459;SDS011;23318;50.966;5.284;2023-08-01T07:13:57;12.40;;;5.70;;
37459;SDS011;23318;50.966;5.284;2023-08-01T07:16:23;16.40;;;6.47;;
37459;SDS011;23318;50.966;5.284;2023-08-01T07:18:48;14.85;;;5.65;;
37459;SDS011;23318;50.966;5.284;2023-08-01T07:21:15;13.70;;;6.63;;
37459;SDS011;23318;50.966;5.284;2023-08-01T07:23:41;14.07;;;6.05;;
37459;SDS011;23318;50.966;5.284;2023-08-01T07:26:07;11.52;;;6.20;;
37459;SDS011;23318;50.966;5.284;2023-08-01T07:28:33;10.70;;;5.97;;
37459;SDS011;23318;50.966;5.284;2023-08-01T07:31:05;12.95;;;7.10;;
37459;SDS011;23318;50.966;5.284;2023-08-01T07:33:32;18.48;;;6.88;;
37459;SDS011;23318;50.966;5.284;2023-08-01T07:35:58;14.93;;;5.93;;
37459;SDS011;23318;50.966;5.284;2023-08-01T07:38:24;17.00;;;6.40;;
37459;SDS011;23318;50.966;5.284;2023-08-01T07:40:52;14.80;;;6.20;;
37459;SDS011;23318;50.966;5.284;2023-08-01T07:43:17;12.57;;;5.72;;
37459;SDS011;23318;50.966;5.284;2023-08-01T07:45:44;15.10;;;6.03;;
37459;SDS011;23318;50.966;5.284;2023-08-01T07:48:10;15.48;;;6.03;;
37459;SDS011;23318;50.966;5.284;2023-08-01T07:50:36;14.90;;;6.10;;
37459;SDS011;23318;50.966;5.284;2023-08-01T07:53:01;15.02;;;5.40;;
37459;SDS011;23318;50.966;5.284;2023-08-01T07:55:27;10.80;;;6.07;;
37459;SDS011;23318;50.966;5.284;2023-08-01T07:57:53;12.52;;;6.18;;
37459;SDS011;23318;50.966;5.284;2023-08-01T08:00:18;16.73;;;6.13;;
37459;SDS011;23318;50.966;5.284;2023-08-01T08:02:44;12.63;;;5.43;;
37459;SDS011;23318;50.966;5.284;2023-08-01T08:05:10;12.88;;;5.32;;
37459;SDS011;23318;50.966;5.284;2023-08-01T08:07:37;12.35;;;5.50;;
37459;SDS011;23318;50.966;5.284;2023-08-01T08:10:03;14.80;;;5.85;;
37459;SDS011;23318;50.966;5.284;2023-08-01T08:12:30;16.40;;;6.07;;
37459;SDS011;23318;50.966;5.284;2023-08-01T08:14:56;18.17;;;6.07;;
37459;SDS011;23318;50.966;5.284;2023-08-01T08:17:21;15.55;;;5.82;;
37459;SDS011;23318;50.966;5.284;2023-08-01T08:19:47;17.80;;;5.28;;
37459;SDS011;23318;50.966;5.284;2023-08-01T08:22:12;13.13;;;5.75;;
37459;SDS011;23318;50.966;5.284;2023-08-01T08:24:38;10.15;;;5.28;;
37459;SDS011;23318;50.966;5.284;2023-08-01T08:27:04;15.93;;;5.53;;
37459;SDS011;23318;50.966;5.284;2023-08-01T08:29:31;13.90;;;5.07;;
37459;SDS011;23318;50.966;5.284;2023-08-01T08:31:57;10.48;;;5.45;;
37459;SDS011;23318;50.966;5.284;2023-08-01T08:34:23;10.43;;;4.60;;
37459;SDS011;23318;50.966;5.284;2023-08-01T08:36:49;12.52;;;4.47;;
37459;SDS011;23318;50.966;5.284;2023-08-01T08:39:18;11.98;;;5.03;;
37459;SDS011;23318;50.966;5.284;2023-08-01T08:41:47;12.30;;;5.20;;
37459;SDS011;23318;50.966;5.284;2023-08-01T08:44:15;13.15;;;4.68;;
37459;SDS011;23318;50.966;5.284;2023-08-01T08:46:42;10.35;;;4.88;;
37459;SDS011;23318;50.966;5.284;2023-08-01T08:49:09;13.27;;;4.30;;
37459;SDS011;23318;50.966;5.284;2023-08-01T08:51:36;8.80;;;3.95;;
37459;SDS011;23318;50.966;5.284;2023-08-01T08:54:06;11.90;;;3.70;;
37459;SDS011;23318;50.966;5.284;2023-08-01T08:56:33;10.88;;;4.40;;
37459;SDS011;23318;50.966;5.284;2023-08-01T08:58:59;8.48;;;3.90;;
37459;SDS011;23318;50.966;5.284;2023-08-01T09:01:26;10.75;;;3.80;;
37459;SDS011;23318;50.966;5.284;2023-08-01T09:03:52;10.93;;;4.00;;
37459;SDS011;23318;50.966;5.284;2023-08-01T09:06:24;11.38;;;4.13;;
37459;SDS011;23318;50.966;5.284;2023-08-01T09:09:04;7.30;;;3.63;;
37459;SDS011;23318;50.966;5.284;2023-08-01T09:11:46;12.75;;;4.15;;
37459;SDS011;23318;50.966;5.284;2023-08-01T09:14:13;7.82;;;3.10;;
37459;SDS011;23318;50.966;5.284;2023-08-01T09:16:40;5.28;;;3.15;;
37459;SDS011;23318;50.966;5.284;2023-08-01T09:19:07;7.72;;;3.30;;
37459;SDS011;23318;50.966;5.284;2023-08-01T09:21:34;11.18;;;4.45;;
37459;SDS011;23318;50.966;5.284;2023-08-01T09:24:16;7.32;;;3.42;;
37459;SDS011;23318;50.966;5.284;2023-08-01T09:26:43;7.18;;;4.00;;
37459;SDS011;23318;50.966;5.284;2023-08-01T09:29:10;8.77;;;4.38;;
37459;SDS011;23318;50.966;5.284;2023-08-01T09:31:37;14.65;;;5.28;;
37459;SDS011;23318;50.966;5.284;2023-08-01T09:34:17;8.95;;;4.13;;
37459;SDS011;23318;50.966;5.284;2023-08-01T09:36:44;9.15;;;3.47;;
37459;SDS011;23318;50.966;5.284;2023-08-01T09:39:15;9.52;;;3.63;;
37459;SDS011;23318;50.966;5.284;2023-08-01T09:41:45;9.02;;;4.07;;
37459;SDS011;23318;50.966;5.284;2023-08-01T09:44:19;10.60;;;4.10;;
37459;SDS011;23318;50.966;5.284;2023-08-01T09:46:54;13.43;;;4.05;;
37459;SDS011;23318;50.966;5.284;2023-08-01T09:49:21;10.43;;;3.67;;
37459;SDS011;23318;50.966;5.284;2023-08-01T09:51:47;11.70;;;3.72;;
37459;SDS011;23318;50.966;5.284;2023-08-01T09:54:15;8.18;;;3.88;;
37459;SDS011;23318;50.966;5.284;2023-08-01T09:56:42;9.10;;;3.22;;
37459;SDS011;23318;50.966;5.284;2023-08-01T09:59:10;7.90;;;2.85;;
37459;SDS011;23318;50.966;5.284;2023-08-01T10:01:36;9.55;;;3.50;;
37459;SDS011;23318;50.966;5.284;2023-08-01T10:04:04;6.70;;;3.47;;
37459;SDS011;23318;50.966;5.284;2023-08-01T10:06:31;9.50;;;3.45;;
37459;SDS011;23318;50.966;5.284;2023-08-01T10:09:01;11.32;;;3.20;;
37459;SDS011;23318;50.966;5.284;2023-08-01T10:11:27;7.38;;;2.95;;
37459;SDS011;23318;50.966;5.284;2023-08-01T10:13:58;6.82;;;2.65;;
37459;SDS011;23318;50.966;5.284;2023-08-01T10:16:25;7.32;;;2.53;;
37459;SDS011;23318;50.966;5.284;2023-08-01T10:18:51;3.67;;;2.15;;
37459;SDS011;23318;50.966;5.284;2023-08-01T10:21:19;9.10;;;2.85;;
37459;SDS011;23318;50.966;5.284;2023-08-01T10:23:46;7.18;;;2.35;;
37459;SDS011;23318;50.966;5.284;2023-08-01T10:26:12;8.15;;;2.47;;
37459;SDS011;23318;50.966;5.284;2023-08-01T10:28:39;6.47;;;2.90;;
37459;SDS011;23318;50.966;5.284;2023-08-01T10:31:07;5.40;;;2.50;;
37459;SDS011;23318;50.966;5.284;2023-08-01T10:33:33;5.68;;;2.28;;
37459;SDS011;23318;50.966;5.284;2023-08-01T10:35:59;7.95;;;2.55;;
37459;SDS011;23318;50.966;5.284;2023-08-01T10:38:25;5.85;;;2.20;;
37459;SDS011;23318;50.966;5.284;2023-08-01T10:40:51;6.20;;;2.22;;
37459;SDS011;23318;50.966;5.284;2023-08-01T10:43:20;5.00;;;1.90;;
37459;SDS011;23318;50.966;5.284;2023-08-01T10:45:46;4.28;;;1.90;;
37459;SDS011;23318;50.966;5.284;2023-08-01T10:48:12;4.95;;;2.00;;
37459;SDS011;23318;50.966;5.284;2023-08-01T10:50:39;5.55;;;1.98;;
37459;SDS011;23318;50.966;5.284;2023-08-01T10:53:08;5.55;;;2.35;;
37459;SDS011;23318;50.966;5.284;2023-08-01T10:55:53;4.40;;;2.28;;
37459;SDS011;23318;50.966;5.284;2023-08-01T10:58:18;4.43;;;1.92;;
37459;SDS011;23318;50.966;5.284;2023-08-01T11:00:44;2.85;;;2.03;;
37459;SDS011;23318;50.966;5.284;2023-08-01T11:03:10;7.22;;;2.20;;
37459;SDS011;23318;50.966;5.284;2023-08-01T11:05:36;6.72;;;2.30;;
37459;SDS011;23318;50.966;5.284;2023-08-01T11:08:02;7.93;;;2.25;;
37459;SDS011;23318;50.966;5.284;2023-08-01T11:10:30;6.50;;;2.35;;
37459;SDS011;23318;50.966;5.284;2023-08-01T11:12:57;7.38;;;1.90;;
37459;SDS011;23318;50.966;5.284;2023-08-01T11:15:23;3.17;;;1.73;;
37459;SDS011;23318;50.966;5.284;2023-08-01T11:17:49;3.28;;;2.03;;
37459;SDS011;23318;50.966;5.284;2023-08-01T11:20:20;3.92;;;1.58;;
37459;SDS011;23318;50.966;5.284;2023-08-01T11:22:59;4.30;;;2.30;;
37459;SDS011;23318;50.966;5.284;2023-08-01T11:28:05;6.50;;;2.38;;
37459;SDS011;23318;50.966;5.284;2023-08-01T11:30:34;4.22;;;2.35;;
37459;SDS011;23318;50.966;5.284;2023-08-01T11:33:00;5.82;;;2.08;;
37459;SDS011;23318;50.966;5.284;2023-08-01T11:35:27;7.82;;;2.55;;
37459;SDS011;23318;50.966;5.284;2023-08-01T11:37:53;4.35;;;2.47;;
37459;SDS011;23318;50.966;5.284;2023-08-01T11:40:20;12.43;;;3.08;;
37459;SDS011;23318;50.966;5.284;2023-08-01T11:42:49;5.65;;;2.55;;
37459;SDS011;23318;50.966;5.284;2023-08-01T11:45:18;5.45;;;2.40;;
37459;SDS011;23318;50.966;5.284;2023-08-01T11:47:45;4.65;;;2.40;;
37459;SDS011;23318;50.966;5.284;2023-08-01T11:50:12;9.82;;;3.03;;
37459;SDS011;23318;50.966;5.284;2023-08-01T11:52:39;6.45;;;2.45;;
37459;SDS011;23318;50.966;5.284;2023-08-01T11:55:05;7.03;;;2.40;;
37459;SDS011;23318;50.966;5.284;2023-08-01T11:57:31;3.80;;;2.20;;
37459;SDS011;23318;50.966;5.284;2023-08-01T11:59:56;5.65;;;1.92;;
37459;SDS011;23318;50.966;5.284;2023-08-01T12:02:23;5.22;;;2.40;;
37459;SDS011;23318;50.966;5.284;2023-08-01T12:04:50;4.25;;;2.20;;
37459;SDS011;23318;50.966;5.284;2023-08-01T12:07:16;5.40;;;2.35;;
37459;SDS011;23318;50.966;5.284;2023-08-01T12:09:42;6.57;;;2.75;;
37459;SDS011;23318;50.966;5.284;2023-08-01T12:12:08;5.25;;;2.50;;
37459;SDS011;23318;50.966;5.284;2023-08-01T12:14:40;8.82;;;2.60;;
37459;SDS011;23318;50.966;5.284;2023-08-01T12:17:06;7.32;;;2.65;;
37459;SDS011;23318;50.966;5.284;2023-08-01T12:19:32;4.90;;;2.72;;
37459;SDS011;23318;50.966;5.284;2023-08-01T12:21:59;8.48;;;3.50;;
37459;SDS011;23318;50.966;5.284;2023-08-01T12:24:25;6.43;;;2.78;;
37459;SDS011;23318;50.966;5.284;2023-08-01T12:26:50;8.18;;;2.70;;
37459;SDS011;23318;50.966;5.284;2023-08-01T12:29:16;5.05;;;2.38;;
37459;SDS011;23318;50.966;5.284;2023-08-01T12:31:42;4.40;;;2.20;;
37459;SDS011;23318;50.966;5.284;2023-08-01T12:34:08;6.90;;;2.80;;
37459;SDS011;23318;50.966;5.284;2023-08-01T12:36:33;4.82;;;1.90;;
37459;SDS011;23318;50.966;5.284;2023-08-01T12:38:59;5.22;;;2.15;;
37459;SDS011;23318;50.966;5.284;2023-08-01T12:41:25;6.78;;;2.10;;
37459;SDS011;23318;50.966;5.284;2023-08-01T12:43:50;4.53;;;2.00;;
37459;SDS011;23318;50.966;5.284;2023-08-01T12:46:16;4.68;;;1.98;;
37459;SDS011;23318;50.966;5.284;2023-08-01T12:48:42;3.08;;;1.40;;
37459;SDS011;23318;50.966;5.284;2023-08-01T12:51:08;7.38;;;1.80;;
37459;SDS011;23318;50.966;5.284;2023-08-01T12:53:34;2.67;;;1.60;;
37459;SDS011;23318;50.966;5.284;2023-08-01T12:56:00;3.65;;;1.48;;
37459;SDS011;23318;50.966;5.284;2023-08-01T12:58:26;4.95;;;1.30;;
37459;SDS011;23318;50.966;5.284;2023-08-01T13:00:52;5.18;;;1.42;;
37459;SDS011;23318;50.966;5.284;2023-08-01T13:03:18;3.90;;;1.40;;
37459;SDS011;23318;50.966;5.284;2023-08-01T13:05:44;3.28;;;1.33;;
37459;SDS011;23318;50.966;5.284;2023-08-01T13:08:10;5.55;;;1.50;;
37459;SDS011;23318;50.966;5.284;2023-08-01T13:10:37;5.03;;;1.40;;
37459;SDS011;23318;50.966;5.284;2023-08-01T13:13:03;2.95;;;1.15;;
37459;SDS011;23318;50.966;5.284;2023-08-01T13:15:29;6.18;;;1.88;;
37459;SDS011;23318;50.966;5.284;2023-08-01T13:17:55;5.40;;;1.73;;
37459;SDS011;23318;50.966;5.284;2023-08-01T13:20:21;3.30;;;1.63;;
37459;SDS011;23318;50.966;5.284;2023-08-01T13:22:48;3.72;;;1.65;;
37459;SDS011;23318;50.966;5.284;2023-08-01T13:25:15;4.03;;;1.70;;
37459;SDS011;23318;50.966;5.284;2023-08-01T13:27:41;6.10;;;1.40;;
37459;SDS011;23318;50.966;5.284;2023-08-01T13:30:07;3.00;;;1.27;;
37459;SDS011;23318;50.966;5.284;2023-08-01T13:32:34;3.58;;;1.58;;
37459;SDS011;23318;50.966;5.284;2023-08-01T13:34:59;4.28;;;1.42;;
37459;SDS011;23318;50.966;5.284;2023-08-01T13:37:25;4.68;;;1.38;;
37459;SDS011;23318;50.966;5.284;2023-08-01T13:39:51;5.25;;;1.50;;
37459;SDS011;23318;50.966;5.284;2023-08-01T13:42:17;4.88;;;1.83;;
37459;SDS011;23318;50.966;5.284;2023-08-01T13:44:43;6.40;;;1.58;;
37459;SDS011;23318;50.966;5.284;2023-08-01T13:47:08;6.55;;;1.52;;
37459;SDS011;23318;50.966;5.284;2023-08-01T13:49:35;5.57;;;1.70;;
37459;SDS011;23318;50.966;5.284;2023-08-01T13:52:00;3.55;;;1.30;;
37459;SDS011;23318;50.966;5.284;2023-08-01T13:54:26;2.97;;;1.15;;
37459;SDS011;23318;50.966;5.284;2023-08-01T13:56:52;6.88;;;1.70;;
37459;SDS011;23318;50.966;5.284;2023-08-01T13:59:18;4.38;;;1.33;;
37459;SDS011;23318;50.966;5.284;2023-08-01T14:01:44;5.55;;;1.20;;
37459;SDS011;23318;50.966;5.284;2023-08-01T14:04:10;3.35;;;1.20;;
37459;SDS011;23318;50.966;5.284;2023-08-01T14:06:39;2.10;;;0.90;;
37459;SDS011;23318;50.966;5.284;2023-08-01T14:09:06;4.18;;;1.10;;
37459;SDS011;23318;50.966;5.284;2023-08-01T14:11:35;2.38;;;0.90;;
37459;SDS011;23318;50.966;5.284;2023-08-01T14:14:01;6.28;;;1.50;;
37459;SDS011;23318;50.966;5.284;2023-08-01T14:16:27;2.70;;;1.00;;
37459;SDS011;23318;50.966;5.284;2023-08-01T14:18:54;2.65;;;1.00;;
37459;SDS011;23318;50.966;5.284;2023-08-01T14:21:19;3.70;;;0.90;;
37459;SDS011;23318;50.966;5.284;2023-08-01T14:23:45;3.67;;;1.08;;
37459;SDS011;23318;50.966;5.284;2023-08-01T14:26:10;3.92;;;1.45;;
37459;SDS011;23318;50.966;5.284;2023-08-01T14:28:36;5.18;;;1.30;;
37459;SDS011;23318;50.966;5.284;2023-08-01T14:31:02;2.72;;;1.10;;
37459;SDS011;23318;50.966;5.284;2023-08-01T14:33:28;4.75;;;1.17;;
37459;SDS011;23318;50.966;5.284;2023-08-01T14:35:54;5.35;;;1.30;;
37459;SDS011;23318;50.966;5.284;2023-08-01T14:38:21;5.82;;;1.30;;
37459;SDS011;23318;50.966;5.284;2023-08-01T14:40:46;4.93;;;1.35;;
37459;SDS011;23318;50.966;5.284;2023-08-01T14:43:12;1.90;;;1.10;;